createdAt,value
2022-08-14T00:02:07.553Z,6.30
2022-08-14T00:05:12.681Z,7.47
2022-08-14T00:08:17.952Z,6.93
2022-08-14T00:11:43.531Z,6.73
2022-08-14T00:14:46.841Z,7.03
2022-08-14T00:17:59.165Z,7.70
2022-08-14T00:21:03.132Z,7.13
2022-08-14T00:24:08.015Z,7.70
2022-08-14T00:27:13.146Z,7.23
2022-08-14T00:30:20.373Z,7.67
2022-08-14T00:33:23.602Z,6.43
2022-08-14T00:36:48.319Z,7.17
2022-08-14T00:39:53.288Z,6.80
2022-08-14T00:42:56.677Z,7.63
2022-08-14T00:46:02.529Z,7.80
2022-08-14T00:49:11.574Z,7.60
2022-08-14T00:52:18.630Z,6.70
2022-08-14T00:55:23.514Z,6.87
2022-08-14T00:58:33.414Z,6.97
2022-08-14T01:01:37.290Z,6.60
2022-08-14T01:04:53.801Z,7.27
2022-08-14T01:07:58.585Z,6.70
2022-08-14T01:11:03.920Z,6.50
2022-08-14T01:14:25.732Z,7.57
2022-08-14T01:17:49.543Z,7.37
2022-08-14T01:21:08.974Z,6.33
2022-08-14T01:24:28.870Z,7.63
2022-08-14T01:27:53.860Z,7.07
2022-08-14T01:31:01.870Z,6.77
2022-08-14T01:35:20.263Z,7.30
2022-08-14T01:37:31.452Z,7.63
2022-08-14T01:40:41.888Z,7.30
2022-08-14T01:43:56.384Z,7.40
2022-08-14T01:47:01.872Z,7.27
2022-08-14T01:50:10.565Z,7.43
2022-08-14T01:53:17.878Z,6.50
2022-08-14T01:56:24.541Z,7.67
2022-08-14T01:59:38.192Z,7.00
2022-08-14T02:02:42.618Z,7.57
2022-08-14T02:05:49.924Z,7.27
2022-08-14T02:08:55.272Z,6.70
2022-08-14T02:12:01.030Z,7.03
2022-08-14T02:15:09.252Z,7.17
2022-08-14T02:18:15.149Z,7.67
2022-08-14T02:21:19.391Z,7.47
2022-08-14T02:24:39.088Z,6.93
2022-08-14T02:28:25.074Z,7.63
2022-08-14T02:31:09.543Z,6.37
2022-08-14T02:34:22.509Z,7.47
2022-08-14T02:37:45.705Z,7.57
2022-08-14T02:40:51.647Z,7.90
2022-08-14T02:44:00.812Z,7.10
2022-08-14T02:47:07.085Z,7.53
2022-08-14T02:50:17.981Z,7.00
2022-08-14T02:53:21.154Z,7.10
2022-08-14T02:56:30.210Z,6.27
2022-08-14T02:59:51.295Z,8.03
2022-08-14T03:02:59.071Z,6.87
2022-08-14T03:06:03.150Z,7.37
2022-08-14T03:09:06.789Z,7.30
2022-08-14T03:12:10.901Z,7.13
2022-08-14T03:15:16.611Z,7.40
2022-08-14T03:18:31.922Z,7.20
2022-08-14T03:21:37.210Z,7.17
2022-08-14T03:24:40.472Z,7.43
2022-08-14T03:27:48.305Z,7.27
2022-08-14T03:31:03.943Z,7.80
2022-08-14T03:34:24.998Z,8.70
2022-08-14T03:39:10.013Z,7.27
2022-08-14T03:40:58.948Z,7.60
2022-08-14T03:45:25.640Z,7.23
2022-08-14T03:47:38.176Z,8.33
2022-08-14T03:50:53.007Z,8.53
2022-08-14T03:54:01.472Z,7.87
2022-08-14T03:57:06.307Z,7.13
2022-08-14T04:00:40.369Z,8.23
2022-08-14T04:03:37.942Z,7.63
2022-08-14T04:06:47.527Z,7.50
2022-08-14T04:09:52.594Z,8.13
2022-08-14T04:12:59.438Z,7.73
2022-08-14T04:16:12.431Z,7.80
2022-08-14T04:19:23.626Z,7.87
2022-08-14T04:22:26.817Z,7.97
2022-08-14T04:25:34.131Z,7.50
2022-08-14T04:29:06.717Z,7.87
2022-08-14T04:33:10.255Z,8.20
2022-08-14T04:35:55.591Z,7.07
2022-08-14T04:39:16.898Z,9.20
2022-08-14T04:42:37.381Z,7.97
2022-08-14T04:45:41.806Z,6.83
2022-08-14T04:48:51.034Z,8.13
2022-08-14T04:51:56.559Z,8.57
2022-08-14T04:54:59.759Z,7.43
2022-08-14T04:58:05.502Z,8.03
2022-08-14T05:01:19.627Z,8.27
2022-08-14T05:04:25.194Z,7.90
2022-08-14T05:07:46.394Z,7.93
2022-08-14T05:10:51.933Z,7.97
2022-08-14T05:14:17.043Z,8.10
2022-08-14T05:17:19.810Z,8.33
2022-08-14T05:21:04.844Z,9.30
2022-08-14T05:23:50.068Z,7.87
2022-08-14T05:26:53.449Z,8.50
2022-08-14T05:29:57.460Z,9.70
2022-08-14T05:33:01.346Z,8.20
2022-08-14T05:36:06.908Z,8.90
2022-08-14T05:39:22.152Z,8.20
2022-08-14T05:42:29.517Z,8.70
2022-08-14T05:45:37.353Z,9.13
2022-08-14T05:48:42.897Z,7.47
2022-08-14T05:51:47.379Z,7.80
2022-08-14T05:54:55.553Z,8.10
2022-08-14T05:58:02.441Z,8.47
2022-08-14T06:01:06.105Z,8.33
2022-08-14T06:04:09.234Z,8.23
2022-08-14T06:07:16.065Z,8.33
2022-08-14T06:10:21.304Z,9.80
2022-08-14T06:13:31.540Z,8.13
2022-08-14T06:16:45.300Z,7.50
2022-08-14T06:19:48.393Z,8.40
2022-08-14T06:22:52.313Z,7.60
2022-08-14T06:25:56.872Z,8.50
2022-08-14T06:29:01.007Z,8.47
2022-08-14T06:32:37.272Z,8.57
2022-08-14T06:35:28.837Z,7.90
2022-08-14T06:38:31.965Z,7.73
2022-08-14T06:41:58.252Z,7.93
2022-08-14T06:45:02.886Z,7.80
2022-08-14T06:48:14.322Z,8.80
2022-08-14T06:51:21.098Z,8.17
2022-08-14T06:54:31.569Z,7.87
2022-08-14T06:57:41.732Z,8.30
2022-08-14T07:01:05.970Z,8.20
2022-08-14T07:04:27.358Z,7.43
2022-08-14T07:07:37.892Z,7.97
2022-08-14T07:10:43.715Z,8.13
2022-08-14T07:13:48.889Z,7.45
2022-08-14T07:16:54.252Z,7.50
2022-08-14T07:19:57.368Z,7.43
2022-08-14T07:23:08.048Z,7.55
2022-08-14T07:26:13.242Z,7.35
2022-08-14T07:29:19.851Z,7.75
2022-08-14T07:32:33.767Z,7.40
2022-08-14T07:35:57.635Z,7.10
2022-08-14T07:39:03.634Z,7.05
2022-08-14T07:42:16.160Z,6.88
2022-08-14T07:45:24.658Z,7.03
2022-08-14T07:48:28.484Z,7.35
2022-08-14T07:51:36.752Z,6.40
2022-08-14T07:54:42.914Z,6.80
2022-08-14T07:57:48.572Z,6.70
2022-08-14T08:00:58.080Z,7.05
2022-08-14T08:04:06.709Z,7.43
2022-08-14T08:07:22.237Z,6.47
2022-08-14T08:11:01.506Z,6.55
2022-08-14T08:14:03.501Z,7.38
2022-08-14T08:17:08.365Z,6.80
2022-08-14T08:20:19.981Z,6.43
2022-08-14T08:23:30.355Z,6.90
2022-08-14T08:26:37.733Z,6.47
2022-08-14T08:29:42.761Z,6.90
2022-08-14T08:32:57.509Z,6.05
2022-08-14T08:36:01.861Z,6.18
2022-08-14T08:39:17.266Z,6.07
2022-08-14T08:42:31.761Z,6.22
2022-08-14T08:45:42.278Z,6.07
2022-08-14T08:48:53.757Z,5.60
2022-08-14T08:52:04.306Z,6.10
2022-08-14T08:55:10.828Z,6.15
2022-08-14T08:58:24.847Z,5.55
2022-08-14T09:01:30.947Z,5.95
2022-08-14T09:04:45.727Z,6.32
2022-08-14T09:08:19.427Z,6.63
2022-08-14T09:11:32.939Z,5.57
2022-08-14T09:14:39.959Z,5.35
2022-08-14T09:17:44.215Z,6.80
2022-08-14T09:20:52.123Z,5.97
2022-08-14T09:24:28.706Z,6.25
2022-08-14T09:27:23.403Z,6.20
2022-08-14T09:30:32.480Z,6.25
2022-08-14T09:33:59.468Z,6.05
2022-08-14T09:37:21.353Z,6.63
2022-08-14T09:40:37.261Z,6.30
2022-08-14T09:43:50.734Z,6.50
2022-08-14T09:46:55.492Z,6.38
2022-08-14T09:50:01.688Z,6.53
2022-08-14T09:53:17.733Z,6.68
2022-08-14T09:56:30.498Z,7.05
2022-08-14T09:59:46.170Z,6.82
2022-08-14T10:02:58.409Z,7.13
2022-08-14T10:06:10.320Z,6.63
2022-08-14T10:09:16.841Z,7.10
2022-08-14T10:12:28.700Z,6.15
2022-08-14T10:15:34.277Z,6.88
2022-08-14T10:18:37.560Z,6.25
2022-08-14T10:23:10.897Z,7.07
2022-08-14T10:25:15.454Z,6.63
2022-08-14T10:28:39.220Z,7.30
2022-08-14T10:31:45.351Z,7.20
2022-08-14T10:34:52.815Z,6.47
2022-08-14T10:37:56.439Z,7.30
2022-08-14T10:41:13.431Z,6.53
2022-08-14T10:44:20.914Z,7.15
2022-08-14T10:48:02.510Z,7.75
2022-08-14T10:51:01.375Z,6.93
2022-08-14T10:54:26.252Z,6.47
2022-08-14T10:57:35.662Z,6.80
2022-08-14T11:00:47.307Z,6.95
2022-08-14T11:03:56.806Z,7.25
2022-08-14T11:07:00.466Z,7.57
2022-08-14T11:10:08.526Z,7.30
2022-08-14T11:13:18.782Z,6.63
2022-08-14T11:16:23.049Z,7.72
2022-08-14T11:19:30.115Z,6.80
2022-08-14T11:22:56.458Z,6.97
2022-08-14T11:26:02.272Z,6.47
2022-08-14T11:29:12.266Z,7.35
2022-08-14T11:32:15.409Z,6.85
2022-08-14T11:35:21.900Z,6.88
2022-08-14T11:38:26.002Z,6.65
2022-08-14T11:41:30.174Z,6.60
2022-08-14T11:44:45.602Z,7.43
2022-08-14T11:48:12.637Z,7.20
2022-08-14T11:51:30.482Z,7.47
2022-08-14T11:54:35.549Z,7.63
2022-08-14T11:57:39.511Z,7.30
2022-08-14T12:00:53.691Z,7.10
2022-08-14T12:03:59.168Z,7.38
2022-08-14T12:07:08.418Z,6.75
2022-08-14T12:10:27.167Z,6.80
2022-08-14T12:13:36.260Z,7.15
2022-08-14T12:16:41.748Z,6.28
2022-08-14T12:19:50.927Z,6.43
2022-08-14T12:22:55.018Z,6.68
2022-08-14T12:26:32.017Z,6.82
2022-08-14T12:29:27.980Z,7.35
2022-08-14T12:32:47.303Z,6.47
2022-08-14T12:35:51.291Z,6.97
2022-08-14T12:39:01.814Z,5.95
2022-08-14T12:42:11.669Z,6.50
2022-08-14T12:45:34.812Z,7.70
2022-08-14T12:48:50.297Z,6.88
2022-08-14T12:51:59.090Z,7.03
2022-08-14T12:55:06.461Z,6.90
2022-08-14T12:58:35.282Z,7.10
2022-08-14T13:01:59.477Z,6.65
2022-08-14T13:05:00.692Z,7.43
2022-08-14T13:08:10.695Z,7.60
2022-08-14T13:11:37.687Z,6.82
2022-08-14T13:14:49.031Z,6.65
2022-08-14T13:17:53.752Z,7.35
2022-08-14T13:21:02.401Z,7.40
2022-08-14T13:24:08.360Z,6.90
2022-08-14T13:27:13.444Z,6.40
2022-08-14T13:30:24.101Z,7.20
2022-08-14T13:33:28.683Z,6.87
2022-08-14T13:36:54.873Z,7.47
2022-08-14T13:39:58.434Z,6.57
2022-08-14T13:43:02.107Z,6.90
2022-08-14T13:46:05.225Z,7.25
2022-08-14T13:49:12.204Z,6.30
2022-08-14T13:52:51.770Z,6.55
2022-08-14T13:55:52.240Z,6.65
2022-08-14T13:58:59.840Z,6.43
2022-08-14T14:02:07.003Z,7.28
2022-08-14T14:05:13.296Z,7.20
2022-08-14T14:08:46.626Z,7.57
2022-08-14T14:11:45.988Z,7.00
2022-08-14T14:14:51.792Z,5.90
2022-08-14T14:17:58.558Z,5.97
2022-08-14T14:21:03.128Z,6.53
2022-08-14T14:24:08.248Z,6.70
2022-08-14T14:27:39.312Z,6.40
2022-08-14T14:30:52.994Z,6.23
2022-08-14T14:33:59.736Z,6.07
2022-08-14T14:37:05.075Z,6.90
2022-08-14T14:40:53.018Z,6.75
2022-08-14T14:43:41.352Z,6.30
2022-08-14T14:46:50.118Z,6.10
2022-08-14T14:49:55.550Z,6.67
2022-08-14T14:53:12.358Z,6.43
2022-08-14T14:56:50.220Z,6.73
2022-08-14T14:59:41.238Z,6.07
2022-08-14T15:02:47.051Z,6.00
2022-08-14T15:05:53.494Z,6.27
2022-08-14T15:08:59.739Z,6.00
2022-08-14T15:12:05.689Z,6.40
2022-08-14T15:15:28.737Z,5.80
2022-08-14T15:18:39.467Z,5.83
2022-08-14T15:21:45.399Z,6.10
2022-08-14T15:24:51.471Z,6.00
2022-08-14T15:27:55.925Z,6.50
2022-08-14T15:30:59.340Z,6.20
2022-08-14T15:34:44.996Z,6.30
2022-08-14T15:37:42.390Z,6.50
2022-08-14T15:40:51.678Z,6.13
2022-08-14T15:44:00.604Z,6.03
2022-08-14T15:47:06.955Z,6.57
2022-08-14T15:50:11.042Z,6.37
2022-08-14T15:53:14.633Z,5.70
2022-08-14T15:56:32.921Z,5.60
2022-08-14T16:00:00.426Z,5.80
2022-08-14T16:03:04.122Z,6.10
2022-08-14T16:06:15.621Z,5.13
2022-08-14T16:09:21.360Z,6.50
2022-08-14T16:12:41.170Z,5.43
2022-08-14T16:15:53.193Z,6.33
2022-08-14T16:18:59.124Z,5.80
2022-08-14T16:22:59.267Z,5.97
2022-08-14T16:25:35.377Z,6.37
2022-08-14T16:28:38.703Z,5.73
2022-08-14T16:31:44.977Z,7.10
2022-08-14T16:34:54.980Z,6.20
2022-08-14T16:38:00.309Z,6.10
2022-08-14T16:41:27.555Z,6.57
2022-08-14T16:44:39.151Z,6.10
2022-08-14T16:47:47.895Z,6.10
2022-08-14T16:50:53.836Z,6.10
2022-08-14T16:54:00.200Z,6.27
2022-08-14T16:57:16.255Z,6.13
2022-08-14T17:00:32.681Z,5.93
2022-08-14T17:03:53.032Z,7.13
2022-08-14T17:06:57.450Z,6.63
2022-08-14T17:10:09.244Z,7.23
2022-08-14T17:13:20.195Z,6.40
2022-08-14T17:16:24.769Z,6.93
2022-08-14T17:19:40.217Z,6.70
2022-08-14T17:22:50.295Z,6.33
2022-08-14T17:25:53.402Z,6.37
2022-08-14T17:29:06.030Z,6.77
2022-08-14T17:32:28.047Z,6.53
2022-08-14T17:35:57.594Z,7.10
2022-08-14T17:39:06.145Z,6.83
2022-08-14T17:42:13.369Z,6.27
2022-08-14T17:45:18.704Z,6.33
2022-08-14T17:49:14.594Z,7.00
2022-08-14T17:52:02.630Z,6.90
2022-08-14T17:55:07.767Z,7.03
2022-08-14T17:58:20.371Z,7.50
2022-08-14T18:01:25.931Z,7.33
2022-08-14T18:04:34.752Z,7.33
2022-08-14T18:08:31.525Z,7.07
2022-08-14T18:11:03.320Z,7.90
2022-08-14T18:14:06.908Z,7.50
2022-08-14T18:17:30.222Z,7.20
2022-08-14T18:21:42.320Z,7.60
2022-08-14T18:24:02.458Z,6.37
2022-08-14T18:27:11.883Z,7.67
2022-08-14T18:30:31.612Z,7.93
2022-08-14T18:33:52.874Z,6.97
2022-08-14T18:36:59.840Z,8.13
2022-08-14T18:40:34.353Z,7.07
2022-08-14T18:43:44.273Z,7.10
2022-08-14T18:47:25.618Z,7.63
2022-08-14T18:50:31.000Z,7.90
2022-08-14T18:53:53.515Z,8.13
2022-08-14T18:56:59.400Z,8.10
2022-08-14T19:00:51.116Z,8.53
2022-08-14T19:03:57.358Z,8.20
2022-08-14T19:07:16.603Z,8.40
2022-08-14T19:10:37.582Z,8.40
2022-08-14T19:13:44.540Z,7.87
2022-08-14T19:16:53.492Z,8.23
2022-08-14T19:20:07.645Z,6.97
2022-08-14T19:23:21.292Z,8.40
2022-08-14T19:26:35.796Z,7.40
2022-08-14T19:29:42.542Z,7.40
2022-08-14T19:32:57.054Z,8.37
2022-08-14T19:36:28.692Z,6.90
2022-08-14T19:39:53.589Z,8.87
2022-08-14T19:42:59.320Z,8.87
2022-08-14T19:46:04.169Z,7.93
2022-08-14T19:50:25.117Z,7.50
2022-08-14T19:53:05.287Z,8.17
2022-08-14T19:56:28.714Z,8.03
2022-08-14T19:59:36.654Z,7.53
2022-08-14T20:03:10.815Z,8.40
2022-08-14T20:06:18.216Z,7.57
2022-08-14T20:11:04.860Z,7.50
2022-08-14T20:12:57.249Z,8.20
2022-08-14T20:16:12.211Z,7.47
2022-08-14T20:19:23.121Z,7.70
2022-08-14T20:22:37.237Z,8.50
2022-08-14T20:25:45.695Z,8.30
2022-08-14T20:29:00.136Z,8.93
2022-08-14T20:32:08.701Z,8.10
2022-08-14T20:35:35.565Z,8.23
2022-08-14T20:38:39.281Z,7.90
2022-08-14T20:42:13.400Z,8.33
2022-08-14T20:45:24.207Z,8.90
2022-08-14T20:48:53.227Z,8.23
2022-08-14T20:52:00.322Z,8.33
2022-08-14T20:55:29.325Z,8.70
2022-08-14T20:58:43.339Z,8.13
2022-08-14T21:01:55.189Z,7.80
2022-08-14T21:05:00.954Z,8.53
2022-08-14T21:08:09.910Z,7.77
2022-08-14T21:11:28.210Z,8.47
2022-08-14T21:14:31.402Z,7.30
2022-08-14T21:17:38.731Z,7.97
2022-08-14T21:20:46.043Z,7.60
2022-08-14T21:23:55.667Z,8.10
2022-08-14T21:27:12.247Z,8.90
2022-08-14T21:30:20.886Z,7.90
2022-08-14T21:33:26.563Z,7.77
2022-08-14T21:36:30.919Z,8.53
2022-08-14T21:39:34.714Z,8.10
2022-08-14T21:42:38.234Z,8.20
2022-08-14T21:45:42.698Z,7.60
2022-08-14T21:48:47.176Z,8.77
2022-08-14T21:51:57.183Z,9.17
2022-08-14T21:55:09.659Z,9.20
2022-08-14T21:58:53.720Z,8.60
2022-08-14T22:02:00.748Z,8.23
2022-08-14T22:05:03.452Z,8.70
2022-08-14T22:08:12.373Z,8.33
2022-08-14T22:11:17.549Z,8.20
2022-08-14T22:14:26.100Z,8.50
2022-08-14T22:17:34.188Z,8.40
2022-08-14T22:20:40.063Z,8.10
2022-08-14T22:23:43.771Z,7.77
2022-08-14T22:26:47.660Z,8.30
2022-08-14T22:29:54.735Z,8.50
2022-08-14T22:33:01.273Z,8.50
2022-08-14T22:36:27.397Z,8.33
2022-08-14T22:40:16.892Z,7.60
2022-08-14T22:43:01.218Z,8.60
2022-08-14T22:46:14.935Z,9.00
2022-08-14T22:50:31.885Z,8.30
2022-08-14T22:52:49.476Z,9.47
2022-08-14T22:55:52.997Z,9.30
2022-08-14T22:58:57.558Z,7.93
2022-08-14T23:02:05.768Z,9.53
2022-08-14T23:05:15.470Z,8.83
2022-08-14T23:08:56.558Z,9.00
2022-08-14T23:11:44.511Z,8.30
2022-08-14T23:14:47.779Z,8.10
2022-08-14T23:17:52.668Z,9.90
2022-08-14T23:20:56.242Z,8.73
2022-08-14T23:24:00.750Z,8.60
2022-08-14T23:27:09.345Z,9.13
2022-08-14T23:30:34.172Z,8.53
2022-08-14T23:33:45.763Z,9.53
2022-08-14T23:36:54.449Z,9.40
2022-08-14T23:39:59.990Z,8.00
2022-08-14T23:43:08.093Z,8.57
2022-08-14T23:46:14.867Z,8.40
2022-08-14T23:49:20.369Z,9.90
2022-08-14T23:52:51.128Z,9.13
2022-08-14T23:55:54.691Z,8.63
2022-08-14T23:59:01.136Z,9.33
